sensor_id;sensor_type;location;lat;lon;timestamp;P1;durP1;ratioP1;P2;durP2;ratioP2
71503;SDS011;59323;50.874;7.028;2023-12-20T02:12:54;17.92;;;5.68;;
71503;SDS011;59323;50.874;7.028;2023-12-20T02:15:20;13.65;;;4.93;;
71503;SDS011;59323;50.874;7.028;2023-12-20T02:17:46;12.93;;;4.30;;
71503;SDS011;59323;50.874;7.028;2023-12-20T02:20:14;11.77;;;4.25;;
71503;SDS011;59323;50.874;7.028;2023-12-20T02:22:40;11.00;;;3.80;;
71503;SDS011;59323;50.874;7.028;2023-12-20T02:25:06;12.57;;;3.87;;
71503;SDS011;59323;50.874;7.028;2023-12-20T02:27:32;14.07;;;4.07;;
71503;SDS011;59323;50.874;7.028;2023-12-20T02:29:57;12.50;;;3.57;;
71503;SDS011;59323;50.874;7.028;2023-12-20T02:32:23;11.00;;;3.33;;
71503;SDS011;59323;50.874;7.028;2023-12-20T02:34:51;10.18;;;3.38;;
71503;SDS011;59323;50.874;7.028;2023-12-20T02:37:17;12.40;;;3.47;;
71503;SDS011;59323;50.874;7.028;2023-12-20T02:39:43;14.38;;;3.13;;
71503;SDS011;59323;50.874;7.028;2023-12-20T02:42:08;13.37;;;2.70;;
71503;SDS011;59323;50.874;7.028;2023-12-20T02:44:37;10.70;;;2.87;;
71503;SDS011;59323;50.874;7.028;2023-12-20T02:47:14;13.65;;;2.42;;
71503;SDS011;59323;50.874;7.028;2023-12-20T02:49:41;14.45;;;2.90;;
71503;SDS011;59323;50.874;7.028;2023-12-20T02:52:10;9.48;;;2.67;;
71503;SDS011;59323;50.874;7.028;2023-12-20T02:54:38;10.93;;;2.43;;
71503;SDS011;59323;50.874;7.028;2023-12-20T02:57:15;14.40;;;2.50;;
71503;SDS011;59323;50.874;7.028;2023-12-20T02:59:40;12.67;;;2.47;;
71503;SDS011;59323;50.874;7.028;2023-12-20T03:02:06;12.65;;;2.28;;
71503;SDS011;59323;50.874;7.028;2023-12-20T03:04:42;12.15;;;2.28;;
71503;SDS011;59323;50.874;7.028;2023-12-20T03:07:10;11.97;;;1.87;;
71503;SDS011;59323;50.874;7.028;2023-12-20T03:13:30;8.55;;;1.83;;
71503;SDS011;59323;50.874;7.028;2023-12-20T03:16:18;12.00;;;1.90;;
71503;SDS011;59323;50.874;7.028;2023-12-20T03:18:44;7.00;;;1.43;;
71503;SDS011;59323;50.874;7.028;2023-12-20T03:21:34;12.18;;;1.60;;
71503;SDS011;59323;50.874;7.028;2023-12-20T03:24:47;10.80;;;1.70;;
71503;SDS011;59323;50.874;7.028;2023-12-20T03:27:16;10.40;;;1.48;;
71503;SDS011;59323;50.874;7.028;2023-12-20T03:36:08;8.10;;;1.20;;
71503;SDS011;59323;50.874;7.028;2023-12-20T03:39:02;10.27;;;1.63;;
71503;SDS011;59323;50.874;7.028;2023-12-20T03:48:29;11.68;;;2.30;;
71503;SDS011;59323;50.874;7.028;2023-12-20T03:51:21;13.70;;;2.63;;
71503;SDS011;59323;50.874;7.028;2023-12-20T03:54:04;14.32;;;2.28;;
71503;SDS011;59323;50.874;7.028;2023-12-20T03:56:42;11.48;;;2.70;;
71503;SDS011;59323;50.874;7.028;2023-12-20T04:02:15;14.88;;;2.58;;
71503;SDS011;59323;50.874;7.028;2023-12-20T04:05:13;10.33;;;2.23;;
71503;SDS011;59323;50.874;7.028;2023-12-20T04:07:39;12.55;;;2.42;;
71503;SDS011;59323;50.874;7.028;2023-12-20T04:10:07;11.18;;;2.15;;
71503;SDS011;59323;50.874;7.028;2023-12-20T04:12:38;12.20;;;1.67;;
71503;SDS011;59323;50.874;7.028;2023-12-20T04:15:06;10.60;;;2.10;;
71503;SDS011;59323;50.874;7.028;2023-12-20T04:17:38;14.63;;;2.53;;
71503;SDS011;59323;50.874;7.028;2023-12-20T04:20:10;17.95;;;2.30;;
71503;SDS011;59323;50.874;7.028;2023-12-20T04:22:42;9.88;;;1.90;;
71503;SDS011;59323;50.874;7.028;2023-12-20T04:25:21;12.07;;;2.43;;
71503;SDS011;59323;50.874;7.028;2023-12-20T04:28:02;13.15;;;2.60;;
71503;SDS011;59323;50.874;7.028;2023-12-20T04:33:37;14.27;;;3.03;;
71503;SDS011;59323;50.874;7.028;2023-12-20T04:36:06;13.50;;;2.53;;
71503;SDS011;59323;50.874;7.028;2023-12-20T04:38:56;13.27;;;2.43;;
71503;SDS011;59323;50.874;7.028;2023-12-20T04:42:01;14.05;;;2.15;;
71503;SDS011;59323;50.874;7.028;2023-12-20T04:44:29;10.32;;;2.30;;
71503;SDS011;59323;50.874;7.028;2023-12-20T04:47:10;12.00;;;2.50;;
71503;SDS011;59323;50.874;7.028;2023-12-20T04:52:41;12.40;;;2.75;;
71503;SDS011;59323;50.874;7.028;2023-12-20T04:55:26;11.30;;;2.53;;
71503;SDS011;59323;50.874;7.028;2023-12-20T04:58:48;13.87;;;2.37;;
71503;SDS011;59323;50.874;7.028;2023-12-20T05:04:39;16.70;;;2.63;;
71503;SDS011;59323;50.874;7.028;2023-12-20T05:10:56;15.20;;;3.25;;
71503;SDS011;59323;50.874;7.028;2023-12-20T05:34:05;12.77;;;2.45;;
71503;SDS011;59323;50.874;7.028;2023-12-20T05:36:31;13.43;;;2.93;;
71503;SDS011;59323;50.874;7.028;2023-12-20T05:38:56;15.03;;;3.33;;
71503;SDS011;59323;50.874;7.028;2023-12-20T05:41:22;15.70;;;3.38;;
71503;SDS011;59323;50.874;7.028;2023-12-20T05:43:47;21.03;;;4.10;;
71503;SDS011;59323;50.874;7.028;2023-12-20T05:46:13;15.47;;;3.57;;
71503;SDS011;59323;50.874;7.028;2023-12-20T05:48:39;13.43;;;3.30;;
71503;SDS011;59323;50.874;7.028;2023-12-20T05:51:13;11.98;;;2.80;;
71503;SDS011;59323;50.874;7.028;2023-12-20T05:53:39;18.40;;;3.10;;
71503;SDS011;59323;50.874;7.028;2023-12-20T05:56:05;14.48;;;3.10;;
71503;SDS011;59323;50.874;7.028;2023-12-20T05:58:33;15.77;;;3.08;;
71503;SDS011;59323;50.874;7.028;2023-12-20T06:00:59;16.27;;;3.47;;
71503;SDS011;59323;50.874;7.028;2023-12-20T06:03:25;11.18;;;3.10;;
71503;SDS011;59323;50.874;7.028;2023-12-20T06:06:06;16.77;;;2.70;;
71503;SDS011;59323;50.874;7.028;2023-12-20T06:08:48;17.48;;;3.45;;
71503;SDS011;59323;50.874;7.028;2023-12-20T06:11:16;14.00;;;3.37;;
71503;SDS011;59323;50.874;7.028;2023-12-20T06:13:45;19.52;;;3.20;;
71503;SDS011;59323;50.874;7.028;2023-12-20T06:16:11;9.20;;;2.90;;
71503;SDS011;59323;50.874;7.028;2023-12-20T06:18:36;14.40;;;3.25;;
71503;SDS011;59323;50.874;7.028;2023-12-20T06:31:25;14.47;;;2.83;;
71503;SDS011;59323;50.874;7.028;2023-12-20T07:12:49;9.77;;;2.28;;
71503;SDS011;59323;50.874;7.028;2023-12-20T08:05:31;12.93;;;3.55;;
71503;SDS011;59323;50.874;7.028;2023-12-20T08:11:24;16.42;;;3.63;;
71503;SDS011;59323;50.874;7.028;2023-12-20T08:13:52;13.27;;;2.90;;
71503;SDS011;59323;50.874;7.028;2023-12-20T08:16:23;20.25;;;4.60;;
71503;SDS011;59323;50.874;7.028;2023-12-20T08:18:50;16.42;;;3.20;;
71503;SDS011;59323;50.874;7.028;2023-12-20T08:21:18;18.40;;;3.42;;
71503;SDS011;59323;50.874;7.028;2023-12-20T08:23:47;13.97;;;3.00;;
71503;SDS011;59323;50.874;7.028;2023-12-20T08:26:18;16.17;;;3.28;;
71503;SDS011;59323;50.874;7.028;2023-12-20T08:29:03;13.90;;;2.63;;
71503;SDS011;59323;50.874;7.028;2023-12-20T08:31:29;12.88;;;2.80;;
71503;SDS011;59323;50.874;7.028;2023-12-20T08:33:54;14.97;;;3.13;;
71503;SDS011;59323;50.874;7.028;2023-12-20T08:36:20;14.17;;;3.70;;
71503;SDS011;59323;50.874;7.028;2023-12-20T08:38:49;15.50;;;3.30;;
71503;SDS011;59323;50.874;7.028;2023-12-20T08:41:32;17.58;;;2.97;;
71503;SDS011;59323;50.874;7.028;2023-12-20T08:44:01;13.75;;;2.70;;
71503;SDS011;59323;50.874;7.028;2023-12-20T08:46:27;16.03;;;3.03;;
71503;SDS011;59323;50.874;7.028;2023-12-20T08:49:06;17.70;;;3.58;;
71503;SDS011;59323;50.874;7.028;2023-12-20T08:54:55;17.30;;;2.80;;
71503;SDS011;59323;50.874;7.028;2023-12-20T08:57:59;13.23;;;2.27;;
71503;SDS011;59323;50.874;7.028;2023-12-20T09:00:39;13.18;;;2.80;;
71503;SDS011;59323;50.874;7.028;2023-12-20T09:16:22;14.93;;;3.00;;
71503;SDS011;59323;50.874;7.028;2023-12-20T09:19:19;11.77;;;2.67;;
71503;SDS011;59323;50.874;7.028;2023-12-20T09:32:49;17.42;;;2.97;;
71503;SDS011;59323;50.874;7.028;2023-12-20T09:36:01;13.35;;;2.80;;
71503;SDS011;59323;50.874;7.028;2023-12-20T09:39:33;12.50;;;2.30;;
71503;SDS011;59323;50.874;7.028;2023-12-20T09:42:09;16.08;;;2.78;;
71503;SDS011;59323;50.874;7.028;2023-12-20T11:27:12;14.80;;;2.63;;
71503;SDS011;59323;50.874;7.028;2023-12-20T11:37:12;12.50;;;2.55;;
71503;SDS011;59323;50.874;7.028;2023-12-20T11:40:28;12.57;;;3.00;;
71503;SDS011;59323;50.874;7.028;2023-12-20T12:01:47;12.88;;;2.10;;
71503;SDS011;59323;50.874;7.028;2023-12-20T12:05:27;14.93;;;2.20;;
71503;SDS011;59323;50.874;7.028;2023-12-20T12:43:28;7.72;;;1.90;;
71503;SDS011;59323;50.874;7.028;2023-12-20T12:47:06;14.75;;;2.65;;
71503;SDS011;59323;50.874;7.028;2023-12-20T12:49:40;10.23;;;2.58;;
71503;SDS011;59323;50.874;7.028;2023-12-20T12:52:06;12.30;;;2.53;;
71503;SDS011;59323;50.874;7.028;2023-12-20T12:54:39;14.98;;;2.05;;
71503;SDS011;59323;50.874;7.028;2023-12-20T12:57:15;12.53;;;2.60;;
71503;SDS011;59323;50.874;7.028;2023-12-20T12:59:42;11.63;;;2.35;;
71503;SDS011;59323;50.874;7.028;2023-12-20T13:02:16;15.30;;;2.60;;
71503;SDS011;59323;50.874;7.028;2023-12-20T13:04:43;14.30;;;3.53;;
71503;SDS011;59323;50.874;7.028;2023-12-20T13:07:12;10.57;;;2.35;;
71503;SDS011;59323;50.874;7.028;2023-12-20T13:09:40;13.43;;;2.30;;
71503;SDS011;59323;50.874;7.028;2023-12-20T13:12:06;15.52;;;2.80;;
71503;SDS011;59323;50.874;7.028;2023-12-20T13:14:33;14.98;;;2.65;;
71503;SDS011;59323;50.874;7.028;2023-12-20T13:17:05;13.18;;;2.17;;
71503;SDS011;59323;50.874;7.028;2023-12-20T13:19:32;11.70;;;2.42;;
71503;SDS011;59323;50.874;7.028;2023-12-20T13:22:14;15.90;;;3.20;;
71503;SDS011;59323;50.874;7.028;2023-12-20T13:24:52;11.80;;;2.60;;
71503;SDS011;59323;50.874;7.028;2023-12-20T13:27:26;11.23;;;2.50;;
71503;SDS011;59323;50.874;7.028;2023-12-20T13:30:15;10.20;;;2.83;;
71503;SDS011;59323;50.874;7.028;2023-12-20T13:32:58;18.15;;;3.10;;
71503;SDS011;59323;50.874;7.028;2023-12-20T13:35:30;13.00;;;2.63;;
71503;SDS011;59323;50.874;7.028;2023-12-20T13:38:00;13.82;;;2.85;;
71503;SDS011;59323;50.874;7.028;2023-12-20T13:40:45;17.17;;;2.80;;
71503;SDS011;59323;50.874;7.028;2023-12-20T13:43:16;17.97;;;3.07;;
71503;SDS011;59323;50.874;7.028;2023-12-20T13:45:49;12.40;;;3.30;;
71503;SDS011;59323;50.874;7.028;2023-12-20T13:48:32;19.85;;;3.25;;
71503;SDS011;59323;50.874;7.028;2023-12-20T13:51:01;13.63;;;2.88;;
71503;SDS011;59323;50.874;7.028;2023-12-20T13:53:32;12.70;;;3.42;;
71503;SDS011;59323;50.874;7.028;2023-12-20T13:56:07;16.63;;;2.80;;
71503;SDS011;59323;50.874;7.028;2023-12-20T13:58:36;12.68;;;2.55;;
71503;SDS011;59323;50.874;7.028;2023-12-20T14:01:09;10.60;;;3.00;;
71503;SDS011;59323;50.874;7.028;2023-12-20T14:06:15;13.70;;;2.80;;
71503;SDS011;59323;50.874;7.028;2023-12-20T14:08:48;12.30;;;2.83;;
71503;SDS011;59323;50.874;7.028;2023-12-20T14:11:19;13.15;;;2.58;;
71503;SDS011;59323;50.874;7.028;2023-12-20T14:13:53;12.88;;;2.92;;
71503;SDS011;59323;50.874;7.028;2023-12-20T14:16:27;12.80;;;2.20;;
71503;SDS011;59323;50.874;7.028;2023-12-20T14:18:55;8.90;;;2.20;;
71503;SDS011;59323;50.874;7.028;2023-12-20T14:21:25;11.07;;;1.93;;
71503;SDS011;59323;50.874;7.028;2023-12-20T14:23:53;10.25;;;1.98;;
71503;SDS011;59323;50.874;7.028;2023-12-20T14:26:27;9.32;;;2.13;;
71503;SDS011;59323;50.874;7.028;2023-12-20T14:28:58;13.70;;;2.60;;
71503;SDS011;59323;50.874;7.028;2023-12-20T14:31:27;13.30;;;2.30;;
71503;SDS011;59323;50.874;7.028;2023-12-20T14:33:55;7.50;;;2.03;;
71503;SDS011;59323;50.874;7.028;2023-12-20T14:36:29;10.02;;;2.33;;
71503;SDS011;59323;50.874;7.028;2023-12-20T14:39:10;13.20;;;2.47;;
71503;SDS011;59323;50.874;7.028;2023-12-20T14:44:28;11.23;;;2.22;;
71503;SDS011;59323;50.874;7.028;2023-12-20T14:47:04;7.03;;;1.80;;
71503;SDS011;59323;50.874;7.028;2023-12-20T14:49:39;11.43;;;2.20;;
71503;SDS011;59323;50.874;7.028;2023-12-20T14:52:14;9.23;;;2.13;;
71503;SDS011;59323;50.874;7.028;2023-12-20T14:54:45;14.20;;;2.30;;
71503;SDS011;59323;50.874;7.028;2023-12-20T14:57:11;7.30;;;2.00;;
71503;SDS011;59323;50.874;7.028;2023-12-20T14:59:36;8.60;;;2.00;;
71503;SDS011;59323;50.874;7.028;2023-12-20T15:02:01;10.63;;;1.73;;
71503;SDS011;59323;50.874;7.028;2023-12-20T15:04:33;12.52;;;1.92;;
71503;SDS011;59323;50.874;7.028;2023-12-20T15:07:05;13.82;;;2.22;;
71503;SDS011;59323;50.874;7.028;2023-12-20T15:09:36;6.20;;;1.90;;
71503;SDS011;59323;50.874;7.028;2023-12-20T15:12:07;11.35;;;2.35;;
71503;SDS011;59323;50.874;7.028;2023-12-20T15:14:40;9.87;;;1.93;;
71503;SDS011;59323;50.874;7.028;2023-12-20T15:17:13;12.25;;;2.45;;
71503;SDS011;59323;50.874;7.028;2023-12-20T15:19:42;10.82;;;2.00;;
71503;SDS011;59323;50.874;7.028;2023-12-20T15:22:13;10.30;;;2.22;;
71503;SDS011;59323;50.874;7.028;2023-12-20T15:24:42;16.98;;;2.58;;
71503;SDS011;59323;50.874;7.028;2023-12-20T15:27:09;12.23;;;2.60;;
71503;SDS011;59323;50.874;7.028;2023-12-20T15:29:35;12.13;;;2.42;;
71503;SDS011;59323;50.874;7.028;2023-12-20T15:32:01;9.43;;;2.13;;
71503;SDS011;59323;50.874;7.028;2023-12-20T15:34:28;15.73;;;2.78;;
71503;SDS011;59323;50.874;7.028;2023-12-20T15:36:53;8.67;;;2.40;;
71503;SDS011;59323;50.874;7.028;2023-12-20T15:39:19;10.27;;;2.80;;
71503;SDS011;59323;50.874;7.028;2023-12-20T15:41:44;9.38;;;2.65;;
71503;SDS011;59323;50.874;7.028;2023-12-20T15:44:09;13.53;;;3.03;;
71503;SDS011;59323;50.874;7.028;2023-12-20T15:46:35;10.17;;;2.70;;
71503;SDS011;59323;50.874;7.028;2023-12-20T15:49:00;10.20;;;2.65;;
71503;SDS011;59323;50.874;7.028;2023-12-20T15:51:26;12.47;;;2.53;;
71503;SDS011;59323;50.874;7.028;2023-12-20T15:53:51;10.10;;;2.40;;
71503;SDS011;59323;50.874;7.028;2023-12-20T15:56:17;10.80;;;2.77;;
71503;SDS011;59323;50.874;7.028;2023-12-20T15:58:43;11.20;;;2.80;;
71503;SDS011;59323;50.874;7.028;2023-12-20T16:01:09;14.65;;;3.28;;
71503;SDS011;59323;50.874;7.028;2023-12-20T16:03:34;18.37;;;3.20;;
71503;SDS011;59323;50.874;7.028;2023-12-20T16:06:00;9.90;;;2.78;;
71503;SDS011;59323;50.874;7.028;2023-12-20T16:08:25;13.20;;;2.73;;
71503;SDS011;59323;50.874;7.028;2023-12-20T16:10:51;12.83;;;2.83;;
71503;SDS011;59323;50.874;7.028;2023-12-20T16:13:17;9.77;;;2.38;;
71503;SDS011;59323;50.874;7.028;2023-12-20T16:15:43;11.97;;;2.80;;
71503;SDS011;59323;50.874;7.028;2023-12-20T16:18:09;10.80;;;2.40;;
71503;SDS011;59323;50.874;7.028;2023-12-20T16:20:39;11.93;;;2.73;;
71503;SDS011;59323;50.874;7.028;2023-12-20T16:23:04;10.20;;;2.88;;
71503;SDS011;59323;50.874;7.028;2023-12-20T16:25:33;12.52;;;2.40;;
71503;SDS011;59323;50.874;7.028;2023-12-20T16:28:05;12.05;;;2.58;;
71503;SDS011;59323;50.874;7.028;2023-12-20T16:30:37;14.40;;;2.90;;
71503;SDS011;59323;50.874;7.028;2023-12-20T16:33:03;10.07;;;2.58;;
71503;SDS011;59323;50.874;7.028;2023-12-20T16:35:28;12.57;;;2.72;;
71503;SDS011;59323;50.874;7.028;2023-12-20T16:37:54;9.57;;;2.60;;
71503;SDS011;59323;50.874;7.028;2023-12-20T16:40:20;11.27;;;2.57;;
71503;SDS011;59323;50.874;7.028;2023-12-20T16:42:49;10.47;;;3.40;;
71503;SDS011;59323;50.874;7.028;2023-12-20T16:45:18;12.25;;;3.38;;
71503;SDS011;59323;50.874;7.028;2023-12-20T16:47:43;10.30;;;2.77;;
71503;SDS011;59323;50.874;7.028;2023-12-20T16:50:09;12.95;;;3.15;;
71503;SDS011;59323;50.874;7.028;2023-12-20T16:52:35;12.15;;;3.13;;
71503;SDS011;59323;50.874;7.028;2023-12-20T16:55:00;15.37;;;3.33;;
71503;SDS011;59323;50.874;7.028;2023-12-20T16:57:27;12.10;;;2.72;;
71503;SDS011;59323;50.874;7.028;2023-12-20T16:59:52;13.70;;;2.77;;
71503;SDS011;59323;50.874;7.028;2023-12-20T17:02:17;13.20;;;2.80;;
71503;SDS011;59323;50.874;7.028;2023-12-20T17:04:43;11.63;;;2.47;;
71503;SDS011;59323;50.874;7.028;2023-12-20T17:07:08;13.35;;;3.35;;
71503;SDS011;59323;50.874;7.028;2023-12-20T17:09:34;8.73;;;2.50;;
71503;SDS011;59323;50.874;7.028;2023-12-20T17:11:59;10.37;;;2.70;;
71503;SDS011;59323;50.874;7.028;2023-12-20T17:14:25;11.20;;;2.97;;
71503;SDS011;59323;50.874;7.028;2023-12-20T17:16:50;15.20;;;2.80;;
71503;SDS011;59323;50.874;7.028;2023-12-20T17:19:16;10.97;;;2.70;;
71503;SDS011;59323;50.874;7.028;2023-12-20T17:21:41;13.60;;;2.70;;
71503;SDS011;59323;50.874;7.028;2023-12-20T17:24:07;10.38;;;2.78;;
71503;SDS011;59323;50.874;7.028;2023-12-20T17:26:33;14.07;;;3.20;;
71503;SDS011;59323;50.874;7.028;2023-12-20T17:29:01;9.82;;;3.10;;
71503;SDS011;59323;50.874;7.028;2023-12-20T17:31:32;10.53;;;2.53;;
71503;SDS011;59323;50.874;7.028;2023-12-20T17:34:15;10.63;;;2.67;;
71503;SDS011;59323;50.874;7.028;2023-12-20T17:36:40;13.40;;;2.78;;
71503;SDS011;59323;50.874;7.028;2023-12-20T17:39:07;14.93;;;2.90;;
71503;SDS011;59323;50.874;7.028;2023-12-20T17:41:32;11.48;;;2.97;;
71503;SDS011;59323;50.874;7.028;2023-12-20T17:44:00;17.70;;;3.40;;
71503;SDS011;59323;50.874;7.028;2023-12-20T17:46:26;11.20;;;2.72;;
71503;SDS011;59323;50.874;7.028;2023-12-20T17:48:51;10.63;;;2.50;;
71503;SDS011;59323;50.874;7.028;2023-12-20T17:51:20;15.93;;;3.03;;
71503;SDS011;59323;50.874;7.028;2023-12-20T17:53:50;16.25;;;3.13;;
71503;SDS011;59323;50.874;7.028;2023-12-20T17:56:16;10.63;;;2.70;;
71503;SDS011;59323;50.874;7.028;2023-12-20T17:58:45;10.97;;;2.83;;
71503;SDS011;59323;50.874;7.028;2023-12-20T18:01:14;16.60;;;3.20;;
71503;SDS011;59323;50.874;7.028;2023-12-20T18:03:40;7.93;;;2.58;;
71503;SDS011;59323;50.874;7.028;2023-12-20T18:06:16;14.60;;;3.60;;
71503;SDS011;59323;50.874;7.028;2023-12-20T18:08:44;9.23;;;2.80;;
71503;SDS011;59323;50.874;7.028;2023-12-20T18:11:38;10.77;;;2.63;;
71503;SDS011;59323;50.874;7.028;2023-12-20T18:14:10;12.20;;;2.63;;
71503;SDS011;59323;50.874;7.028;2023-12-20T18:16:39;12.85;;;2.30;;
71503;SDS011;59323;50.874;7.028;2023-12-20T18:19:11;12.20;;;3.13;;
71503;SDS011;59323;50.874;7.028;2023-12-20T18:21:44;11.00;;;2.80;;
71503;SDS011;59323;50.874;7.028;2023-12-20T18:24:13;12.60;;;3.20;;
71503;SDS011;59323;50.874;7.028;2023-12-20T18:26:44;11.63;;;3.50;;
71503;SDS011;59323;50.874;7.028;2023-12-20T18:29:20;11.98;;;3.50;;
71503;SDS011;59323;50.874;7.028;2023-12-20T18:31:51;16.35;;;3.22;;
71503;SDS011;59323;50.874;7.028;2023-12-20T18:34:19;11.55;;;3.15;;
71503;SDS011;59323;50.874;7.028;2023-12-20T18:36:51;13.40;;;3.05;;
71503;SDS011;59323;50.874;7.028;2023-12-20T18:39:18;11.80;;;3.13;;
71503;SDS011;59323;50.874;7.028;2023-12-20T18:41:49;14.88;;;3.80;;
71503;SDS011;59323;50.874;7.028;2023-12-20T18:44:18;8.55;;;2.72;;
71503;SDS011;59323;50.874;7.028;2023-12-20T18:46:49;12.02;;;2.83;;
71503;SDS011;59323;50.874;7.028;2023-12-20T18:49:17;14.60;;;3.25;;
71503;SDS011;59323;50.874;7.028;2023-12-20T18:51:45;12.97;;;2.80;;
71503;SDS011;59323;50.874;7.028;2023-12-20T18:54:18;13.10;;;3.08;;
71503;SDS011;59323;50.874;7.028;2023-12-20T18:56:45;20.40;;;3.33;;
71503;SDS011;59323;50.874;7.028;2023-12-20T18:59:21;12.40;;;2.80;;
71503;SDS011;59323;50.874;7.028;2023-12-20T19:01:51;14.00;;;2.90;;
71503;SDS011;59323;50.874;7.028;2023-12-20T19:04:33;10.65;;;2.97;;
71503;SDS011;59323;50.874;7.028;2023-12-20T19:06:59;14.32;;;2.85;;
71503;SDS011;59323;50.874;7.028;2023-12-20T19:09:31;9.20;;;2.47;;
71503;SDS011;59323;50.874;7.028;2023-12-20T19:11:57;11.52;;;3.08;;
71503;SDS011;59323;50.874;7.028;2023-12-20T19:14:26;11.02;;;2.70;;
71503;SDS011;59323;50.874;7.028;2023-12-20T19:16:54;9.65;;;2.47;;
71503;SDS011;59323;50.874;7.028;2023-12-20T19:19:29;7.80;;;2.80;;
71503;SDS011;59323;50.874;7.028;2023-12-20T19:21:58;10.02;;;2.33;;
71503;SDS011;59323;50.874;7.028;2023-12-20T19:24:30;8.93;;;2.08;;
71503;SDS011;59323;50.874;7.028;2023-12-20T19:26:58;10.90;;;2.30;;
71503;SDS011;59323;50.874;7.028;2023-12-20T19:29:24;11.07;;;2.03;;
71503;SDS011;59323;50.874;7.028;2023-12-20T19:31:50;9.98;;;2.50;;
71503;SDS011;59323;50.874;7.028;2023-12-20T19:34:18;9.93;;;2.22;;
71503;SDS011;59323;50.874;7.028;2023-12-20T19:36:44;11.87;;;2.43;;
71503;SDS011;59323;50.874;7.028;2023-12-20T19:39:12;9.52;;;2.22;;
71503;SDS011;59323;50.874;7.028;2023-12-20T19:41:43;10.05;;;2.47;;
71503;SDS011;59323;50.874;7.028;2023-12-20T19:44:11;7.63;;;1.80;;
71503;SDS011;59323;50.874;7.028;2023-12-20T19:46:42;12.43;;;2.43;;
71503;SDS011;59323;50.874;7.028;2023-12-20T19:49:07;8.38;;;1.90;;
71503;SDS011;59323;50.874;7.028;2023-12-20T19:51:33;8.37;;;2.03;;
71503;SDS011;59323;50.874;7.028;2023-12-20T19:53:58;7.13;;;1.63;;
71503;SDS011;59323;50.874;7.028;2023-12-20T19:56:23;8.43;;;1.70;;
71503;SDS011;59323;50.874;7.028;2023-12-20T19:58:51;10.43;;;2.27;;
71503;SDS011;59323;50.874;7.028;2023-12-20T20:01:17;7.93;;;2.20;;
71503;SDS011;59323;50.874;7.028;2023-12-20T20:03:45;8.50;;;2.10;;
71503;SDS011;59323;50.874;7.028;2023-12-20T20:06:14;10.75;;;2.20;;
71503;SDS011;59323;50.874;7.028;2023-12-20T20:08:40;9.18;;;1.83;;
71503;SDS011;59323;50.874;7.028;2023-12-20T20:11:18;6.90;;;1.70;;
71503;SDS011;59323;50.874;7.028;2023-12-20T20:13:51;9.27;;;1.83;;
71503;SDS011;59323;50.874;7.028;2023-12-20T20:16:21;10.48;;;2.03;;
71503;SDS011;59323;50.874;7.028;2023-12-20T20:18:47;10.77;;;2.15;;
71503;SDS011;59323;50.874;7.028;2023-12-20T20:21:13;10.43;;;1.90;;
71503;SDS011;59323;50.874;7.028;2023-12-20T20:23:38;8.20;;;1.83;;
71503;SDS011;59323;50.874;7.028;2023-12-20T20:26:10;6.57;;;1.50;;
71503;SDS011;59323;50.874;7.028;2023-12-20T20:28:39;7.00;;;1.80;;
71503;SDS011;59323;50.874;7.028;2023-12-20T20:31:10;7.15;;;1.70;;
71503;SDS011;59323;50.874;7.028;2023-12-20T20:33:38;8.65;;;1.90;;
71503;SDS011;59323;50.874;7.028;2023-12-20T20:36:21;8.80;;;1.80;;
71503;SDS011;59323;50.874;7.028;2023-12-20T20:38:49;8.60;;;1.37;;
71503;SDS011;59323;50.874;7.028;2023-12-20T20:41:18;6.07;;;1.70;;
71503;SDS011;59323;50.874;7.028;2023-12-20T20:43:43;7.83;;;1.50;;
71503;SDS011;59323;50.874;7.028;2023-12-20T20:46:15;6.75;;;1.30;;
71503;SDS011;59323;50.874;7.028;2023-12-20T20:48:45;8.45;;;2.08;;
71503;SDS011;59323;50.874;7.028;2023-12-20T20:51:13;6.82;;;1.30;;
71503;SDS011;59323;50.874;7.028;2023-12-20T20:54:05;6.55;;;1.55;;
71503;SDS011;59323;50.874;7.028;2023-12-20T20:56:39;5.20;;;1.03;;
71503;SDS011;59323;50.874;7.028;2023-12-20T20:59:30;7.13;;;1.23;;
71503;SDS011;59323;50.874;7.028;2023-12-20T21:02:26;7.13;;;1.70;;
71503;SDS011;59323;50.874;7.028;2023-12-20T21:04:58;7.90;;;1.48;;
71503;SDS011;59323;50.874;7.028;2023-12-20T21:07:34;8.07;;;1.20;;
71503;SDS011;59323;50.874;7.028;2023-12-20T21:10:10;10.37;;;1.43;;
71503;SDS011;59323;50.874;7.028;2023-12-20T21:12:40;6.25;;;1.15;;
71503;SDS011;59323;50.874;7.028;2023-12-20T21:15:12;5.25;;;1.40;;
71503;SDS011;59323;50.874;7.028;2023-12-20T21:17:39;8.35;;;1.52;;
71503;SDS011;59323;50.874;7.028;2023-12-20T21:20:12;6.68;;;1.40;;
71503;SDS011;59323;50.874;7.028;2023-12-20T21:22:46;9.80;;;1.20;;
71503;SDS011;59323;50.874;7.028;2023-12-20T21:25:12;5.70;;;0.90;;
71503;SDS011;59323;50.874;7.028;2023-12-20T21:27:55;5.75;;;1.73;;
71503;SDS011;59323;50.874;7.028;2023-12-20T21:30:41;7.72;;;1.20;;
71503;SDS011;59323;50.874;7.028;2023-12-20T21:33:10;7.27;;;1.30;;
71503;SDS011;59323;50.874;7.028;2023-12-20T21:35:36;6.00;;;1.00;;
71503;SDS011;59323;50.874;7.028;2023-12-20T21:38:01;8.75;;;1.30;;
71503;SDS011;59323;50.874;7.028;2023-12-20T21:40:41;9.38;;;1.52;;
71503;SDS011;59323;50.874;7.028;2023-12-20T21:43:10;6.13;;;1.20;;
71503;SDS011;59323;50.874;7.028;2023-12-20T21:45:41;6.03;;;1.60;;
71503;SDS011;59323;50.874;7.028;2023-12-20T21:48:15;6.93;;;1.38;;
71503;SDS011;59323;50.874;7.028;2023-12-20T21:50:41;4.40;;;1.30;;
71503;SDS011;59323;50.874;7.028;2023-12-20T21:53:06;6.83;;;1.40;;
71503;SDS011;59323;50.874;7.028;2023-12-20T21:55:41;8.15;;;1.50;;
71503;SDS011;59323;50.874;7.028;2023-12-20T21:58:12;9.32;;;1.85;;
71503;SDS011;59323;50.874;7.028;2023-12-20T22:00:37;4.53;;;1.50;;
71503;SDS011;59323;50.874;7.028;2023-12-20T22:03:06;8.63;;;2.13;;
71503;SDS011;59323;50.874;7.028;2023-12-20T22:05:57;8.70;;;1.83;;
71503;SDS011;59323;50.874;7.028;2023-12-20T22:08:35;10.15;;;1.92;;
71503;SDS011;59323;50.874;7.028;2023-12-20T22:11:06;8.80;;;1.98;;
71503;SDS011;59323;50.874;7.028;2023-12-20T22:13:41;8.25;;;1.77;;
71503;SDS011;59323;50.874;7.028;2023-12-20T22:16:06;10.70;;;1.77;;
71503;SDS011;59323;50.874;7.028;2023-12-20T22:18:34;8.43;;;1.80;;
71503;SDS011;59323;50.874;7.028;2023-12-20T22:21:03;7.50;;;1.57;;
71503;SDS011;59323;50.874;7.028;2023-12-20T22:23:40;6.57;;;1.70;;
71503;SDS011;59323;50.874;7.028;2023-12-20T22:26:17;4.03;;;1.10;;
71503;SDS011;59323;50.874;7.028;2023-12-20T22:28:43;8.83;;;1.93;;
71503;SDS011;59323;50.874;7.028;2023-12-20T22:31:14;6.85;;;1.25;;
71503;SDS011;59323;50.874;7.028;2023-12-20T22:33:58;4.65;;;1.00;;
71503;SDS011;59323;50.874;7.028;2023-12-20T22:36:27;7.72;;;1.05;;
71503;SDS011;59323;50.874;7.028;2023-12-20T22:39:19;4.72;;;1.20;;
71503;SDS011;59323;50.874;7.028;2023-12-20T22:41:51;7.50;;;1.10;;
71503;SDS011;59323;50.874;7.028;2023-12-20T22:44:22;11.50;;;1.00;;
71503;SDS011;59323;50.874;7.028;2023-12-20T22:46:53;6.63;;;1.20;;
71503;SDS011;59323;50.874;7.028;2023-12-20T22:52:29;5.15;;;0.88;;
71503;SDS011;59323;50.874;7.028;2023-12-20T22:55:14;5.88;;;1.20;;
71503;SDS011;59323;50.874;7.028;2023-12-20T23:11:37;4.32;;;1.10;;
71503;SDS011;59323;50.874;7.028;2023-12-20T23:14:03;4.40;;;1.03;;
71503;SDS011;59323;50.874;7.028;2023-12-20T23:16:39;4.28;;;0.80;;
71503;SDS011;59323;50.874;7.028;2023-12-20T23:19:18;6.03;;;1.15;;
71503;SDS011;59323;50.874;7.028;2023-12-20T23:24:44;4.63;;;0.98;;
71503;SDS011;59323;50.874;7.028;2023-12-20T23:28:00;6.37;;;0.90;;
71503;SDS011;59323;50.874;7.028;2023-12-20T23:30:46;3.50;;;0.80;;
71503;SDS011;59323;50.874;7.028;2023-12-20T23:33:21;6.25;;;1.00;;